createdAt,value
2022-08-29T00:00:17.732Z,23.19
2022-08-29T00:02:50.558Z,23.20
2022-08-29T00:05:24.977Z,23.24
2022-08-29T00:07:52.485Z,23.17
2022-08-29T00:10:19.493Z,23.09
2022-08-29T00:12:46.891Z,23.04
2022-08-29T00:15:14.759Z,22.93
2022-08-29T00:17:41.525Z,22.90
2022-08-29T00:20:10.258Z,22.86
2022-08-29T00:22:36.843Z,22.81
2022-08-29T00:25:05.695Z,22.67
2022-08-29T00:27:33.139Z,22.59
2022-08-29T00:29:59.960Z,22.54
2022-08-29T00:32:26.931Z,22.53
2022-08-29T00:34:53.660Z,22.51
2022-08-29T00:37:20.125Z,22.52
2022-08-29T00:39:46.589Z,22.58
2022-08-29T00:42:13.272Z,22.63
2022-08-29T00:44:39.773Z,22.58
2022-08-29T00:47:11.418Z,22.66
2022-08-29T00:49:42.778Z,22.66
2022-08-29T00:52:18.912Z,22.61
2022-08-29T00:54:49.912Z,22.54
2022-08-29T00:57:19.839Z,22.45
2022-08-29T00:59:48.563Z,22.43
2022-08-29T01:02:15.186Z,22.47
2022-08-29T01:04:41.847Z,22.56
2022-08-29T01:07:09.765Z,22.59
2022-08-29T01:09:38.681Z,22.64
2022-08-29T01:12:15.794Z,22.58
2022-08-29T01:14:49.648Z,22.50
2022-08-29T01:17:42.397Z,22.42
2022-08-29T01:20:24.236Z,22.50
2022-08-29T01:23:00.882Z,22.50
2022-08-29T01:25:31.747Z,22.36
2022-08-29T01:28:21.345Z,22.28
2022-08-29T01:31:09.189Z,22.26
2022-08-29T01:33:56.988Z,22.31
2022-08-29T01:36:25.080Z,22.31
2022-08-29T01:38:52.158Z,22.33
2022-08-29T01:41:20.711Z,22.36
2022-08-29T01:43:51.496Z,22.31
2022-08-29T01:46:29.604Z,22.23
2022-08-29T01:48:57.211Z,22.21
2022-08-29T01:51:25.268Z,22.19
2022-08-29T01:53:53.070Z,22.25
2022-08-29T01:56:23.363Z,22.25
2022-08-29T01:58:52.824Z,22.24
2022-08-29T02:01:24.165Z,22.22
2022-08-29T02:03:52.439Z,22.24
2022-08-29T02:06:19.073Z,22.19
2022-08-29T02:08:46.389Z,22.25
2022-08-29T02:11:16.287Z,22.30
2022-08-29T02:13:47.087Z,22.39
2022-08-29T02:16:14.491Z,22.41
2022-08-29T02:18:44.049Z,22.44
2022-08-29T02:21:12.933Z,22.48
2022-08-29T02:23:40.649Z,22.53
2022-08-29T02:26:07.689Z,22.49
2022-08-29T02:28:37.342Z,22.49
2022-08-29T02:31:05.476Z,22.49
2022-08-29T02:33:32.341Z,22.48
2022-08-29T02:35:59.560Z,22.51
2022-08-29T02:38:27.800Z,22.51
2022-08-29T02:40:56.373Z,22.34
2022-08-29T02:43:23.620Z,22.27
2022-08-29T02:45:50.468Z,22.29
2022-08-29T02:48:17.915Z,22.23
2022-08-29T02:50:53.552Z,22.01
2022-08-29T02:53:24.260Z,21.88
2022-08-29T02:55:51.981Z,21.84
2022-08-29T02:58:19.981Z,21.93
2022-08-29T03:00:46.839Z,21.93
2022-08-29T03:03:13.596Z,21.94
2022-08-29T03:05:40.627Z,21.95
2022-08-29T03:08:09.904Z,21.92
2022-08-29T03:10:37.154Z,21.83
2022-08-29T03:13:05.176Z,21.79
2022-08-29T03:15:31.667Z,21.68
2022-08-29T03:17:58.253Z,21.68
2022-08-29T03:20:24.828Z,21.55
2022-08-29T03:22:52.729Z,21.39
2022-08-29T03:25:20.905Z,21.34
2022-08-29T03:27:47.825Z,21.43
2022-08-29T03:30:15.725Z,21.51
2022-08-29T03:32:42.663Z,21.52
2022-08-29T03:35:11.188Z,21.60
2022-08-29T03:37:38.139Z,21.70
2022-08-29T03:40:06.764Z,21.71
2022-08-29T03:42:33.286Z,21.65
2022-08-29T03:45:04.012Z,21.58
2022-08-29T03:47:30.428Z,21.49
2022-08-29T03:49:56.932Z,21.45
2022-08-29T03:52:23.411Z,21.30
2022-08-29T03:54:49.924Z,21.11
2022-08-29T03:57:16.492Z,21.02
2022-08-29T03:59:42.979Z,21.13
2022-08-29T04:02:10.227Z,21.08
2022-08-29T04:04:55.663Z,21.15
2022-08-29T04:07:22.098Z,21.24
2022-08-29T04:09:48.613Z,21.21
2022-08-29T04:12:16.560Z,21.18
2022-08-29T04:14:43.120Z,21.35
2022-08-29T04:17:12.433Z,21.46
2022-08-29T04:19:39.654Z,21.40
2022-08-29T04:22:06.238Z,21.34
2022-08-29T04:24:34.229Z,21.34
2022-08-29T04:27:01.249Z,21.36
2022-08-29T04:29:27.973Z,21.44
2022-08-29T04:31:54.538Z,21.33
2022-08-29T04:34:21.378Z,21.21
2022-08-29T04:36:48.189Z,21.19
2022-08-29T04:39:15.191Z,21.25
2022-08-29T04:41:41.746Z,21.35
2022-08-29T04:44:09.573Z,21.44
2022-08-29T04:46:36.096Z,21.45
2022-08-29T04:49:04.443Z,21.38
2022-08-29T04:51:34.182Z,21.38
2022-08-29T04:54:01.245Z,21.37
2022-08-29T04:56:27.924Z,21.38
2022-08-29T04:58:56.325Z,21.36
2022-08-29T05:01:26.106Z,21.36
2022-08-29T05:03:54.293Z,21.42
2022-08-29T05:06:22.847Z,21.46
2022-08-29T05:08:58.700Z,21.54
2022-08-29T05:11:28.686Z,21.52
2022-08-29T05:13:55.520Z,21.38
2022-08-29T05:16:22.220Z,21.34
2022-08-29T05:18:48.714Z,21.27
2022-08-29T05:21:27.653Z,21.24
2022-08-29T05:23:56.498Z,21.28
2022-08-29T05:26:24.300Z,21.19
2022-08-29T05:28:51.503Z,21.16
2022-08-29T05:31:18.569Z,21.27
2022-08-29T05:33:45.031Z,21.28
2022-08-29T05:36:11.792Z,21.36
2022-08-29T05:38:38.310Z,21.39
2022-08-29T05:41:05.251Z,21.40
2022-08-29T05:43:32.887Z,21.22
2022-08-29T05:46:07.723Z,21.06
2022-08-29T05:48:34.802Z,21.08
2022-08-29T05:51:01.691Z,21.10
2022-08-29T05:53:28.223Z,21.19
2022-08-29T05:55:54.847Z,21.33
2022-08-29T05:58:21.732Z,21.43
2022-08-29T06:00:48.625Z,21.51
2022-08-29T06:03:15.931Z,21.63
2022-08-29T06:05:42.613Z,21.72
2022-08-29T06:08:09.439Z,21.73
2022-08-29T06:10:41.257Z,21.70
2022-08-29T06:13:07.775Z,21.75
2022-08-29T06:15:34.286Z,21.79
2022-08-29T06:18:00.792Z,21.86
2022-08-29T06:20:27.364Z,21.85
2022-08-29T06:22:53.890Z,21.86
2022-08-29T06:25:39.975Z,21.93
2022-08-29T06:28:07.540Z,21.85
2022-08-29T06:30:34.181Z,22.01
2022-08-29T06:33:02.140Z,22.19
2022-08-29T06:35:28.819Z,22.26
2022-08-29T06:37:55.362Z,22.55
2022-08-29T06:40:22.198Z,22.81
2022-08-29T06:42:48.750Z,22.98
2022-08-29T06:45:15.364Z,22.73
2022-08-29T06:47:41.840Z,22.87
2022-08-29T06:50:08.776Z,23.02
2022-08-29T06:52:35.617Z,23.25
2022-08-29T06:55:02.732Z,23.47
2022-08-29T06:57:29.267Z,23.48
2022-08-29T06:59:55.751Z,23.40
2022-08-29T07:02:22.335Z,23.41
2022-08-29T07:04:48.868Z,23.44
2022-08-29T07:07:15.476Z,23.53
2022-08-29T07:09:41.912Z,23.69
2022-08-29T07:12:08.425Z,23.74
2022-08-29T07:14:34.877Z,23.76
2022-08-29T07:17:01.327Z,23.75
2022-08-29T07:19:27.859Z,23.71
2022-08-29T07:21:55.409Z,23.78
2022-08-29T07:24:25.230Z,23.85
2022-08-29T07:26:51.929Z,23.81
2022-08-29T07:29:21.740Z,23.91
2022-08-29T07:31:49.000Z,23.97
2022-08-29T07:34:16.331Z,23.89
2022-08-29T07:36:46.897Z,23.99
2022-08-29T07:39:17.260Z,24.05
2022-08-29T07:41:44.487Z,24.18
2022-08-29T07:44:12.311Z,24.23
2022-08-29T07:46:39.896Z,24.16
2022-08-29T07:49:07.129Z,24.23
2022-08-29T07:51:34.637Z,24.25
2022-08-29T07:54:01.457Z,24.31
2022-08-29T07:56:37.812Z,24.25
2022-08-29T07:59:06.084Z,24.23
2022-08-29T08:01:32.854Z,24.32
2022-08-29T08:03:59.361Z,24.42
2022-08-29T08:06:27.497Z,24.36
2022-08-29T08:08:54.785Z,24.39
2022-08-29T08:11:23.073Z,24.40
2022-08-29T08:13:50.177Z,24.52
2022-08-29T08:16:20.381Z,24.54
2022-08-29T08:18:47.020Z,24.43
2022-08-29T08:21:13.705Z,24.45
2022-08-29T08:23:41.021Z,24.58
2022-08-29T08:26:08.851Z,24.68
2022-08-29T08:28:35.902Z,24.66
2022-08-29T08:31:06.748Z,24.65
2022-08-29T08:33:35.411Z,24.78
2022-08-29T08:36:03.672Z,24.96
2022-08-29T08:38:31.064Z,25.03
2022-08-29T08:41:31.103Z,24.84
2022-08-29T08:44:01.868Z,24.92
2022-08-29T08:46:43.924Z,25.16
2022-08-29T08:49:26.942Z,25.34
2022-08-29T08:52:00.580Z,25.46
2022-08-29T08:54:32.147Z,25.58
2022-08-29T08:57:16.733Z,25.65
2022-08-29T08:59:46.202Z,25.56
2022-08-29T09:02:28.136Z,25.39
2022-08-29T09:05:24.090Z,25.52
2022-08-29T09:08:18.286Z,25.67
2022-08-29T09:11:19.818Z,25.85
2022-08-29T09:14:18.092Z,26.02
2022-08-29T09:16:49.475Z,26.03
2022-08-29T09:19:17.624Z,26.10
2022-08-29T09:21:48.546Z,26.27
2022-08-29T09:24:28.913Z,26.39
2022-08-29T09:26:56.282Z,26.50
2022-08-29T09:29:29.485Z,26.59
2022-08-29T09:32:12.118Z,26.74
2022-08-29T09:37:34.940Z,27.00
2022-08-29T09:40:12.448Z,26.89
2022-08-29T09:42:47.318Z,26.60
2022-08-29T09:45:25.189Z,26.57
2022-08-29T09:48:15.642Z,26.70
2022-08-29T09:50:42.668Z,26.84
2022-08-29T09:53:14.382Z,27.07
2022-08-29T09:55:52.376Z,27.31
2022-08-29T09:58:21.885Z,27.54
2022-08-29T10:01:09.724Z,27.73
2022-08-29T10:03:54.393Z,28.08
2022-08-29T10:06:24.636Z,27.84
2022-08-29T10:09:40.401Z,27.73
2022-08-29T10:12:14.069Z,27.56
2022-08-29T10:14:49.794Z,27.46
2022-08-29T10:17:44.726Z,27.42
2022-08-29T10:20:12.049Z,27.61
2022-08-29T10:22:52.140Z,27.47
2022-08-29T10:25:32.850Z,27.35
2022-08-29T10:28:25.574Z,27.54
2022-08-29T10:30:56.244Z,27.56
2022-08-29T10:34:15.309Z,27.92
2022-08-29T10:36:47.206Z,27.71
2022-08-29T10:39:17.880Z,27.60
2022-08-29T10:41:56.707Z,27.58
2022-08-29T10:44:31.927Z,27.61
2022-08-29T10:47:16.699Z,27.50
2022-08-29T10:50:42.446Z,27.64
2022-08-29T10:53:24.476Z,27.84
2022-08-29T10:56:01.102Z,27.91
2022-08-29T10:58:48.505Z,28.08
2022-08-29T11:01:30.034Z,28.13
2022-08-29T11:04:09.226Z,28.13
2022-08-29T11:06:45.298Z,27.94
2022-08-29T11:09:25.257Z,28.01
2022-08-29T11:12:02.225Z,27.98
2022-08-29T11:14:37.813Z,28.08
2022-08-29T11:17:07.255Z,28.35
2022-08-29T11:19:45.910Z,28.49
2022-08-29T11:22:31.935Z,28.48
2022-08-29T11:25:09.199Z,28.40
2022-08-29T11:27:54.097Z,28.45
2022-08-29T11:30:27.848Z,28.49
2022-08-29T11:33:22.981Z,28.73
2022-08-29T11:36:16.271Z,28.45
2022-08-29T11:39:03.365Z,28.50
2022-08-29T11:41:33.923Z,28.51
2022-08-29T11:44:26.108Z,28.76
2022-08-29T11:46:56.752Z,28.89
2022-08-29T11:49:46.303Z,28.90
2022-08-29T11:52:21.878Z,28.72
2022-08-29T11:54:54.556Z,28.83
2022-08-29T11:57:21.021Z,29.01
2022-08-29T11:59:54.614Z,28.97
2022-08-29T12:02:33.179Z,29.26
2022-08-29T12:05:14.453Z,29.32
2022-08-29T12:08:14.464Z,29.33
2022-08-29T12:10:52.964Z,29.35
2022-08-29T12:13:44.124Z,29.35
2022-08-29T12:16:12.139Z,29.42
2022-08-29T12:18:50.892Z,29.43
2022-08-29T12:21:37.545Z,28.97
2022-08-29T12:24:06.405Z,28.91
2022-08-29T12:26:46.634Z,29.13
2022-08-29T12:29:19.467Z,29.24
2022-08-29T12:32:22.257Z,29.28
2022-08-29T12:35:08.437Z,29.23
2022-08-29T12:38:03.329Z,29.18
2022-08-29T12:40:35.777Z,29.34
2022-08-29T12:43:50.662Z,29.76
2022-08-29T12:46:24.784Z,29.36
2022-08-29T12:48:59.288Z,29.25
2022-08-29T12:51:49.283Z,29.30
2022-08-29T12:54:27.807Z,29.50
2022-08-29T12:56:54.519Z,29.47
2022-08-29T12:59:21.061Z,29.52
2022-08-29T13:01:54.369Z,29.48
2022-08-29T13:04:25.238Z,29.65
2022-08-29T13:07:02.086Z,29.81
2022-08-29T13:09:40.079Z,29.73
2022-08-29T13:12:14.171Z,29.71
2022-08-29T13:14:46.685Z,29.73
2022-08-29T13:17:18.760Z,29.77
2022-08-29T13:20:23.209Z,29.76
2022-08-29T13:22:49.772Z,29.79
2022-08-29T13:25:17.351Z,29.80
2022-08-29T13:27:48.215Z,29.71
2022-08-29T13:30:23.344Z,29.80
2022-08-29T13:32:52.367Z,29.93
2022-08-29T13:35:28.065Z,29.91
2022-08-29T13:38:30.524Z,29.93
2022-08-29T13:40:58.641Z,29.85
2022-08-29T13:43:43.108Z,29.86
2022-08-29T13:46:14.833Z,30.05
2022-08-29T13:48:43.052Z,30.18
2022-08-29T13:51:11.182Z,30.28
2022-08-29T13:53:37.687Z,30.27
2022-08-29T13:56:04.710Z,30.11
2022-08-29T13:58:32.167Z,30.15
2022-08-29T14:00:58.752Z,30.26
2022-08-29T14:03:31.045Z,30.18
2022-08-29T14:05:58.384Z,30.08
2022-08-29T14:08:25.031Z,29.99
2022-08-29T14:10:51.939Z,29.86
2022-08-29T14:13:18.581Z,29.78
2022-08-29T14:15:45.102Z,29.85
2022-08-29T14:18:11.843Z,30.03
2022-08-29T14:20:39.003Z,30.09
2022-08-29T14:23:05.729Z,30.23
2022-08-29T14:25:32.219Z,30.26
2022-08-29T14:27:58.999Z,30.11
2022-08-29T14:30:25.592Z,30.09
2022-08-29T14:32:52.100Z,30.00
2022-08-29T14:35:27.635Z,29.90
2022-08-29T14:37:59.612Z,30.04
2022-08-29T14:40:26.374Z,30.12
2022-08-29T14:42:55.726Z,30.18
2022-08-29T14:45:22.196Z,30.18
2022-08-29T14:47:48.740Z,30.28
2022-08-29T14:50:16.021Z,30.26
2022-08-29T14:52:43.028Z,30.01
2022-08-29T14:55:11.180Z,29.88
2022-08-29T14:57:38.030Z,29.88
2022-08-29T15:00:11.503Z,29.96
2022-08-29T15:02:38.528Z,29.96
2022-08-29T15:05:05.625Z,29.98
2022-08-29T15:07:32.066Z,30.04
2022-08-29T15:09:58.812Z,30.00
2022-08-29T15:12:27.846Z,29.95
2022-08-29T15:14:55.044Z,29.94
2022-08-29T15:17:23.549Z,30.02
2022-08-29T15:22:38.470Z,30.05
2022-08-29T15:25:05.707Z,30.10
2022-08-29T15:27:32.496Z,30.01
2022-08-29T15:29:59.225Z,29.95
2022-08-29T15:32:25.858Z,29.92
2022-08-29T15:34:53.524Z,29.94
2022-08-29T15:37:20.299Z,29.91
2022-08-29T15:39:46.827Z,29.82
2022-08-29T15:42:17.331Z,29.78
2022-08-29T15:44:44.184Z,29.72
2022-08-29T15:47:11.589Z,29.74
2022-08-29T15:49:39.421Z,29.83
2022-08-29T15:52:05.945Z,29.84
2022-08-29T15:54:32.564Z,29.84
2022-08-29T15:56:59.187Z,29.86
2022-08-29T15:59:41.431Z,29.80
2022-08-29T16:02:13.751Z,29.74
2022-08-29T16:04:47.397Z,29.73
2022-08-29T16:07:14.820Z,29.73
2022-08-29T16:09:43.137Z,29.72
2022-08-29T16:12:11.305Z,29.78
2022-08-29T16:14:58.458Z,29.72
2022-08-29T16:17:25.833Z,29.72
2022-08-29T16:19:52.668Z,29.77
2022-08-29T16:22:19.185Z,29.78
2022-08-29T16:24:48.761Z,29.77
2022-08-29T16:27:16.308Z,29.72
2022-08-29T16:29:42.854Z,29.71
2022-08-29T16:32:09.376Z,29.67
2022-08-29T16:34:36.205Z,29.73
2022-08-29T16:37:03.421Z,29.74
2022-08-29T16:39:29.937Z,29.77
2022-08-29T16:41:56.522Z,29.75
2022-08-29T16:44:23.490Z,29.69
2022-08-29T16:46:49.993Z,29.63
2022-08-29T16:49:16.761Z,29.60
2022-08-29T16:51:43.280Z,29.54
2022-08-29T16:54:10.204Z,29.56
2022-08-29T16:56:36.717Z,29.47
2022-08-29T16:59:04.350Z,29.41
2022-08-29T17:01:32.895Z,29.36
2022-08-29T17:04:03.916Z,29.33
2022-08-29T17:06:32.245Z,29.32
2022-08-29T17:08:59.295Z,29.29
2022-08-29T17:11:25.941Z,29.26
2022-08-29T17:13:52.445Z,29.24
2022-08-29T17:16:19.360Z,29.24
2022-08-29T17:18:46.742Z,29.20
2022-08-29T17:21:13.940Z,29.14
2022-08-29T17:23:41.327Z,29.10
2022-08-29T17:26:10.809Z,29.10
2022-08-29T17:28:39.079Z,29.07
2022-08-29T17:31:06.622Z,29.08
2022-08-29T17:33:34.308Z,29.02
2022-08-29T17:36:02.266Z,28.94
2022-08-29T17:38:28.803Z,28.89
2022-08-29T17:40:59.155Z,28.83
2022-08-29T17:43:25.975Z,28.75
2022-08-29T17:45:52.746Z,28.72
2022-08-29T17:48:19.791Z,28.67
2022-08-29T17:50:47.511Z,28.63
2022-08-29T17:53:14.289Z,28.59
2022-08-29T17:55:40.953Z,28.51
2022-08-29T17:58:07.487Z,28.49
2022-08-29T18:00:34.065Z,28.46
2022-08-29T18:03:00.598Z,28.43
2022-08-29T18:05:27.101Z,28.36
2022-08-29T18:07:53.767Z,28.32
2022-08-29T18:10:22.020Z,28.29
2022-08-29T18:12:49.417Z,28.27
2022-08-29T18:15:16.550Z,28.22
2022-08-29T18:17:45.225Z,28.16
2022-08-29T18:20:15.662Z,28.11
2022-08-29T18:22:43.291Z,28.05
2022-08-29T18:25:11.513Z,28.01
2022-08-29T18:27:43.624Z,27.92
2022-08-29T18:30:13.427Z,27.92
2022-08-29T18:32:41.227Z,27.89
2022-08-29T18:35:08.469Z,27.83
2022-08-29T18:37:35.323Z,27.79
2022-08-29T18:40:02.565Z,27.73
2022-08-29T18:42:40.481Z,27.74
2022-08-29T18:45:08.302Z,27.69
2022-08-29T18:47:34.791Z,27.62
2022-08-29T18:50:25.156Z,27.61
2022-08-29T18:52:52.333Z,27.57
2022-08-29T18:55:19.173Z,27.52
2022-08-29T18:57:47.114Z,27.50
2022-08-29T19:00:14.395Z,27.48
2022-08-29T19:02:41.094Z,27.51
2022-08-29T19:05:08.000Z,27.51
2022-08-29T19:07:34.488Z,27.43
2022-08-29T19:10:00.960Z,27.38
2022-08-29T19:12:27.422Z,27.33
2022-08-29T19:14:53.915Z,27.30
2022-08-29T19:17:20.391Z,27.31
2022-08-29T19:20:10.317Z,27.25
2022-08-29T19:22:38.052Z,27.17
2022-08-29T19:25:06.068Z,27.17
2022-08-29T19:27:43.300Z,27.19
2022-08-29T19:30:12.138Z,27.18
2022-08-29T19:32:39.157Z,27.13
2022-08-29T19:35:06.474Z,27.13
2022-08-29T19:37:33.095Z,27.12
2022-08-29T19:39:59.599Z,27.04
2022-08-29T19:42:28.129Z,26.95
2022-08-29T19:44:55.226Z,26.94
2022-08-29T19:47:23.329Z,26.94
2022-08-29T19:49:51.051Z,26.94
2022-08-29T19:52:17.845Z,26.91
2022-08-29T19:54:44.328Z,26.83
2022-08-29T19:57:13.604Z,26.81
2022-08-29T19:59:42.190Z,26.76
2022-08-29T20:02:09.357Z,26.77
2022-08-29T20:04:36.405Z,26.73
2022-08-29T20:07:03.473Z,26.66
2022-08-29T20:09:30.074Z,26.58
2022-08-29T20:11:57.014Z,26.46
2022-08-29T20:14:24.003Z,26.40
2022-08-29T20:16:51.751Z,26.40
2022-08-29T20:19:18.979Z,26.40
2022-08-29T20:21:46.028Z,26.33
2022-08-29T20:24:15.551Z,26.28
2022-08-29T20:26:43.457Z,26.28
2022-08-29T20:29:12.057Z,26.24
2022-08-29T20:31:39.748Z,26.22
2022-08-29T20:34:06.472Z,26.21
2022-08-29T20:36:51.450Z,26.23
2022-08-29T20:39:19.772Z,26.25
2022-08-29T20:41:50.788Z,26.26
2022-08-29T20:44:20.276Z,26.28
2022-08-29T20:46:48.142Z,26.22
2022-08-29T20:49:17.973Z,26.14
2022-08-29T20:51:44.527Z,26.09
2022-08-29T20:54:13.172Z,26.12
2022-08-29T20:56:39.838Z,26.04
2022-08-29T20:59:07.199Z,25.98
2022-08-29T21:01:35.835Z,25.97
2022-08-29T21:04:22.817Z,25.92
2022-08-29T21:06:54.196Z,25.92
2022-08-29T21:09:22.331Z,25.90
2022-08-29T21:11:49.758Z,25.88
2022-08-29T21:14:16.269Z,25.92
2022-08-29T21:16:42.717Z,25.87
2022-08-29T21:19:09.816Z,25.87
2022-08-29T21:21:38.276Z,25.84
2022-08-29T21:24:06.154Z,25.74
2022-08-29T21:26:33.414Z,25.64
2022-08-29T21:29:01.500Z,25.63
2022-08-29T21:31:28.095Z,25.75
2022-08-29T21:33:54.755Z,25.81
2022-08-29T21:36:25.689Z,25.80
2022-08-29T21:38:55.567Z,25.75
2022-08-29T21:41:23.742Z,25.64
2022-08-29T21:43:51.431Z,25.59
2022-08-29T21:46:25.055Z,25.66
2022-08-29T21:48:56.365Z,25.63
2022-08-29T21:51:23.785Z,25.33
2022-08-29T21:53:52.365Z,24.87
2022-08-29T21:56:18.978Z,24.78
2022-08-29T21:58:48.963Z,24.82
2022-08-29T22:01:15.592Z,24.87
2022-08-29T22:03:42.053Z,24.83
2022-08-29T22:06:09.298Z,24.87
2022-08-29T22:08:37.909Z,24.83
2022-08-29T22:11:16.841Z,24.85
2022-08-29T22:13:43.747Z,24.85
2022-08-29T22:16:29.578Z,24.74
2022-08-29T22:19:05.389Z,24.82
2022-08-29T22:21:36.650Z,24.81
2022-08-29T22:24:04.137Z,24.82
2022-08-29T22:26:30.729Z,24.73
2022-08-29T22:28:57.583Z,24.73
2022-08-29T22:31:24.230Z,24.72
2022-08-29T22:33:51.474Z,24.72
2022-08-29T22:36:19.190Z,24.81
2022-08-29T22:38:47.065Z,24.71
2022-08-29T22:41:22.059Z,24.80
2022-08-29T22:43:49.703Z,24.87
2022-08-29T22:46:21.535Z,24.84
2022-08-29T22:48:49.452Z,24.80
2022-08-29T22:51:21.200Z,24.69
2022-08-29T22:54:08.837Z,24.61
2022-08-29T22:56:38.263Z,24.60
2022-08-29T22:59:06.529Z,24.52
2022-08-29T23:01:35.186Z,24.40
2022-08-29T23:04:02.387Z,24.46
2022-08-29T23:06:29.190Z,24.46
2022-08-29T23:08:56.551Z,24.35
2022-08-29T23:11:25.243Z,24.35
2022-08-29T23:13:53.018Z,24.36
2022-08-29T23:16:22.469Z,24.41
2022-08-29T23:18:49.044Z,24.38
2022-08-29T23:21:15.604Z,24.43
2022-08-29T23:23:43.917Z,24.51
2022-08-29T23:26:10.560Z,24.51
2022-08-29T23:28:37.041Z,24.52
2022-08-29T23:31:03.638Z,24.57
2022-08-29T23:33:30.267Z,24.63
2022-08-29T23:35:56.981Z,24.68
2022-08-29T23:38:23.711Z,24.67
2022-08-29T23:40:50.892Z,24.59
2022-08-29T23:43:18.467Z,24.55
2022-08-29T23:45:44.948Z,24.54
2022-08-29T23:48:11.415Z,24.61
2022-08-29T23:50:38.213Z,24.53
2022-08-29T23:53:04.967Z,24.49
2022-08-29T23:55:31.497Z,24.38
2022-08-29T23:57:57.935Z,24.38
